WetterOnline ( https://www.wetteronline.de )

Wetter aktuell Fichtelberg

Aktuelles Wetter: Fichtelberg (1215m)

6-stündlich | Neueste Meldungen
Ortszeit Temperatur Wetter
So, 29.01. 7:00 -9.4° C bedeckt
So, 29.01. 1:00 -10.8° C Nebel
Sa, 28.01. 19:00 -12.0° C Nebel
Sa, 28.01. 13:00 -8.5° C Nebel
Sa, 28.01. 7:00 -6.5° C leichter Schneefall
Sa, 28.01. 1:00 -6.5° C Nebel
Fr, 27.01. 19:00 -6.6° C Nebel
Fr, 27.01. 13:00 -7.3° C Nebel
Ortszeit Temperatur Wetter
So, 29.01. 9:00 -9.6° C wolkig
So, 29.01. 8:50 -9.6° C bedeckt
So, 29.01. 8:40 -9.6° C bedeckt
So, 29.01. 8:30 -9.7° C bedeckt
So, 29.01. 8:20 -9.7° C bedeckt
So, 29.01. 8:10 -9.6° C bedeckt
So, 29.01. 8:00 -9.4° C bedeckt
So, 29.01. 7:30 -9.4° C bedeckt
So, 29.01. 7:00 -9.4° C bedeckt
So, 29.01. 6:30 -9.6° C bedeckt
So, 29.01. 6:00 -9.8° C bedeckt
Ortszeit Relative Feuchte Sichtweite
So, 29.01. 7:00 82% >70 km
So, 29.01. 1:00 92% 100 m
Sa, 28.01. 19:00 90% 0.3 km
Sa, 28.01. 13:00 91% 100 m
Sa, 28.01. 7:00 93% 100 m
Sa, 28.01. 1:00 94% <100 m
Fr, 27.01. 19:00 93% <100 m
Fr, 27.01. 13:00 93% 100 m
Ortszeit Relative Feuchte Sichtweite
So, 29.01. 9:00 80% >70 km
So, 29.01. 8:50 80% -
So, 29.01. 8:40 81% -
So, 29.01. 8:30 81% >70 km
So, 29.01. 8:20 81% -
So, 29.01. 8:10 83% -
So, 29.01. 8:00 82% >70 km
So, 29.01. 7:30 81% >70 km
So, 29.01. 7:00 82% >70 km
So, 29.01. 6:30 81% >70 km
So, 29.01. 6:00 81% >70 km
Ortszeit Niederschlagsmenge Niederschlagsart
So, 29.01. 7:00 0.1 l/m2 in 12 Std. Schnee
So, 29.01. 1:00 0.1 l/m2 in 6 Std. Schnee
Sa, 28.01. 19:00 0.1 l/m2 in 12 Std. Schnee
Sa, 28.01. 13:00 0.1 l/m2 in 6 Std. Schnee
Sa, 28.01. 7:00 0.1 l/m2 in 12 Std. Schnee
Sa, 28.01. 1:00 0.1 l/m2 in 6 Std. Schnee
Fr, 27.01. 19:00 0.1 l/m2 in 12 Std. Schnee
Fr, 27.01. 13:00 0.1 l/m2 in 6 Std. Schnee
Ortszeit Niederschlagsmenge Niederschlagsart
So, 29.01. 9:00 0.0 l/m2 in 1 Std. -
So, 29.01. 8:50 keine Meldung -
So, 29.01. 8:40 keine Meldung -
So, 29.01. 8:30 0.0 l/m2 in 30 Min -
So, 29.01. 8:20 keine Meldung -
So, 29.01. 8:10 keine Meldung -
So, 29.01. 8:00 0.0 l/m2 in 1 Std. -
So, 29.01. 7:30 0.0 l/m2 in 30 Min -
So, 29.01. 7:00 0.0 l/m2 in 1 Std. Schnee
So, 29.01. 6:30 0.0 l/m2 in 30 Min -
So, 29.01. 6:00 0.0 l/m2 in 1 Std. -
Ortszeit Stärke Spitze Richtung
km/h Bft. km/h Grad Sektor
So, 29.01. 7:00 18 3 36 330° NW
So, 29.01. 1:00 14 3 36 300° NW
Sa, 28.01. 19:00 7 2 36 300° NW
Sa, 28.01. 13:00 22 4 43 310° NW
Sa, 28.01. 7:00 28 4 43 350° N
Sa, 28.01. 1:00 22 4 47 30° NO
Fr, 27.01. 19:00 35 5 48 10° N
Fr, 27.01. 13:00 24 4 39 350° N
Ortszeit Stärke Spitze Richtung
km/h Bft. km/h Grad Sektor
So, 29.01. 9:00 26 4 33 320° NW
So, 29.01. 8:50 26 4 - 320° NW
So, 29.01. 8:40 26 4 - 320° NW
So, 29.01. 8:30 28 4 33 320° NW
So, 29.01. 8:20 28 4 - 320° NW
So, 29.01. 8:10 26 4 - 320° NW
So, 29.01. 8:00 28 4 31 320° NW
So, 29.01. 7:30 24 4 24 320° NW
So, 29.01. 7:00 18 3 29 330° NW
So, 29.01. 6:30 20 4 30 340° N
So, 29.01. 6:00 29 5 32 350° N
Ortszeit Untergrenze Bedeckung Gattung
total tief tief mittel hoch
So, 29.01. 7:00 6300 m 8/8 8/8 - - -
So, 29.01. 1:00 <30 m 8/8 0/8 - - -
Sa, 28.01. 19:00 <30 m 7/8 0/8 - - -
Sa, 28.01. 13:00 <30 m 8/8 0/8 - - -
Sa, 28.01. 7:00 <30 m 8/8 0/8 - - -
Sa, 28.01. 1:00 <30 m 8/8 0/8 - - -
Fr, 27.01. 19:00 <30 m 8/8 0/8 - - -
Fr, 27.01. 13:00 <30 m 8/8 0/8 - - -
Ortszeit Bedeckungsgrad in Achtel und Wolkenuntergrenze
So, 29.01. 9:00 8(6000m) 8(6600m) 8(10500m)
So, 29.01. 8:50 8(6000m) 8(6600m) 8(10500m)
So, 29.01. 8:40 8
So, 29.01. 8:30 7(5700m) 8(6300m) 8(7200m)
So, 29.01. 8:20 7(5700m) 8(6300m) 8(7200m)
So, 29.01. 8:10 8
So, 29.01. 8:00 8(5700m) 8(6600m) 8(9000m)
So, 29.01. 7:30 8(6000m) 8(6900m) 8(8100m)
So, 29.01. 7:00 8(6300m) 8(8700m)
So, 29.01. 6:30 8(6600m) 8(7200m) 8(9000m)
So, 29.01. 6:00 8(6900m) 8(9000m)
Ortszeit Stationsdruck (hPa) Tendenz (hPa in 3 Std.)
So, 29.01. 7:00 882 - 0,5
So, 29.01. 1:00 883 - 0,1
Sa, 28.01. 19:00 882 + 0,4
Sa, 28.01. 13:00 882 + 0,3
Sa, 28.01. 7:00 880 + 0,5
Sa, 28.01. 1:00 880 + 0,1
Fr, 27.01. 19:00 879 + 0,9
Fr, 27.01. 13:00 878 + 0,2
Ortszeit Stationsdruck (hPa) Tendenz (hPa in 3 Std.)
So, 29.01. 9:00 882 + 0,2
So, 29.01. 8:50 882 keine Meldung
So, 29.01. 8:40 882 keine Meldung
So, 29.01. 8:30 882 - 0,2
So, 29.01. 8:20 882 keine Meldung
So, 29.01. 8:10 882 keine Meldung
So, 29.01. 8:00 882 - 0,5
So, 29.01. 7:30 882 - 0,4
So, 29.01. 7:00 882 - 0,5
So, 29.01. 6:30 882 - 0,3
So, 29.01. 6:00 882 - 0,1
Ortszeit Schneehöhe (cm)
So, 29.01. 7:00 17
So, 29.01. 1:00 17
Sa, 28.01. 19:00 17
Sa, 28.01. 13:00 17
Sa, 28.01. 7:00 17
Sa, 28.01. 1:00 17
Fr, 27.01. 19:00 17
Fr, 27.01. 13:00 17
Ortszeit Schneehöhe (cm)
So, 29.01. 9:00 17
So, 29.01. 8:50 17
So, 29.01. 8:40 17
So, 29.01. 8:30 17
So, 29.01. 8:20 17
So, 29.01. 8:10 17
So, 29.01. 8:00 17
So, 29.01. 7:30 17
So, 29.01. 7:00 17
So, 29.01. 6:30 17
So, 29.01. 6:00 17
Link zu dieser Seite / Seite empfehlen

Das Wetter in ...